KFXE/FXE METAR and TAF weather

Enter ICAO airport designator
Station Type Date Time Source
KFXE METAR 2019/12/12 16:53 UTC NOAA

KFXE 121653Z 15008KT 8SM SCT037 BKN047 24/22 A3019 RMK AO2 RAE24 SLP224 P0002 T02390217


Station Type Date Time Source
KFXE Decoded METAR 2019/12/12 16:53 UTC NOAA

FORT LAUDERDALE EXECUTIVE, FL, United States (KFXE) 26-12N 080-11W 6M
Dec 12, 2019 - 11:53 AM EST / 2019.12.12 1653 UTC
Wind: from the SSE (150 degrees) at 9 MPH (8 KT):0
Visibility: 8 mile(s):0
Sky conditions: mostly cloudy
Precipitation last hour: 0.02 inches
Temperature: 75.0 F (23.9 C)
Dew Point: 71.1 F (21.7 C)
Relative Humidity: 87%
Pressure (altimeter): 30.19 in. Hg (1022 hPa)
ob: KFXE 121653Z 15008KT 8SM SCT037 BKN047 24/22 A3019 RMK AO2 RAE24 SLP224 P0002 T02390217
cycle: 17

Station Type Date Time Source
KFXE TAF 2019/12/12 15:15 UTC NOAA

TAF
AMD KFXE 121511Z 1215/1312 08010KT P6SM VCSH SCT030 BKN040
TEMPO 1215/1218 4SM SHRA BKN025
FM121800 09011KT P6SM VCSH SCT025 BKN035 BKN100
FM130000 10008KT P6SM SCT030 BKN060 BKN100

Example: see airport list